sensor_id;sensor_type;location;lat;lon;timestamp;pressure;altitude;pressure_sealevel;temperature;humidity
12777;BME280;6452;41.572;23.732;2023-09-19T00:00:24;95693.09;;;15.55;nan
12777;BME280;6452;41.572;23.732;2023-09-19T00:02:57;95663.56;;;15.45;nan
12777;BME280;6452;41.572;23.732;2023-09-19T00:05:25;95718.06;;;15.61;nan
12777;BME280;6452;41.572;23.732;2023-09-19T00:07:54;95707.81;;;15.68;nan
12777;BME280;6452;41.572;23.732;2023-09-19T00:10:22;95672.50;;;15.26;nan
12777;BME280;6452;41.572;23.732;2023-09-19T00:12:51;95707.31;;;15.61;nan
12777;BME280;6452;41.572;23.732;2023-09-19T00:15:27;95713.47;;;15.51;nan
12777;BME280;6452;41.572;23.732;2023-09-19T00:18:14;95710.28;;;15.44;nan
12777;BME280;6452;41.572;23.732;2023-09-19T00:20:45;95708.94;;;15.47;nan
12777;BME280;6452;41.572;23.732;2023-09-19T00:23:14;95665.78;;;15.13;nan
12777;BME280;6452;41.572;23.732;2023-09-19T00:25:41;95701.97;;;15.46;nan
12777;BME280;6452;41.572;23.732;2023-09-19T00:28:07;95712.16;;;15.54;nan
12777;BME280;6452;41.572;23.732;2023-09-19T00:30:34;95623.72;;;14.93;nan
12777;BME280;6452;41.572;23.732;2023-09-19T00:33:00;95725.84;;;15.47;nan
12777;BME280;6452;41.572;23.732;2023-09-19T00:35:27;95692.88;;;15.21;nan
12777;BME280;6452;41.572;23.732;2023-09-19T00:37:54;95670.41;;;15.02;nan
12777;BME280;6452;41.572;23.732;2023-09-19T00:40:21;95674.41;;;15.00;nan
12777;BME280;6452;41.572;23.732;2023-09-19T00:42:48;95705.00;;;15.09;nan
12777;BME280;6452;41.572;23.732;2023-09-19T00:45:16;95663.72;;;14.79;nan
12777;BME280;6452;41.572;23.732;2023-09-19T00:47:45;95718.44;;;15.04;nan
12777;BME280;6452;41.572;23.732;2023-09-19T00:50:16;95698.88;;;14.88;nan
12777;BME280;6452;41.572;23.732;2023-09-19T00:52:44;95714.13;;;15.08;nan
12777;BME280;6452;41.572;23.732;2023-09-19T00:55:11;95704.75;;;15.05;nan
12777;BME280;6452;41.572;23.732;2023-09-19T00:57:40;95622.72;;;14.43;nan
12777;BME280;6452;41.572;23.732;2023-09-19T01:00:07;95660.28;;;14.69;nan
12777;BME280;6452;41.572;23.732;2023-09-19T01:02:36;95700.75;;;14.98;nan
12777;BME280;6452;41.572;23.732;2023-09-19T01:05:04;95677.38;;;14.93;nan
12777;BME280;6452;41.572;23.732;2023-09-19T01:07:32;95702.63;;;14.82;nan
12777;BME280;6452;41.572;23.732;2023-09-19T01:10:00;95700.22;;;14.75;nan
12777;BME280;6452;41.572;23.732;2023-09-19T01:12:40;95715.25;;;14.66;nan
12777;BME280;6452;41.572;23.732;2023-09-19T01:29:26;95695.69;;;14.40;nan
12777;BME280;6452;41.572;23.732;2023-09-19T01:32:03;95670.41;;;14.21;nan
12777;BME280;6452;41.572;23.732;2023-09-19T01:34:50;95692.44;;;14.43;nan
12777;BME280;6452;41.572;23.732;2023-09-19T01:37:17;95699.44;;;14.44;nan
12777;BME280;6452;41.572;23.732;2023-09-19T01:39:59;95704.25;;;14.42;nan
12777;BME280;6452;41.572;23.732;2023-09-19T01:45:44;95695.13;;;14.33;nan
12777;BME280;6452;41.572;23.732;2023-09-19T01:48:40;95688.13;;;14.22;nan
12777;BME280;6452;41.572;23.732;2023-09-19T01:51:14;95643.03;;;13.84;nan
12777;BME280;6452;41.572;23.732;2023-09-19T01:54:03;95701.22;;;14.14;nan
12777;BME280;6452;41.572;23.732;2023-09-19T01:56:50;95634.47;;;13.82;nan
12777;BME280;6452;41.572;23.732;2023-09-19T01:59:22;95645.97;;;13.77;nan
12777;BME280;6452;41.572;23.732;2023-09-19T02:01:52;95683.78;;;13.96;nan
12777;BME280;6452;41.572;23.732;2023-09-19T02:04:19;95623.72;;;13.61;nan
12777;BME280;6452;41.572;23.732;2023-09-19T02:06:46;95647.84;;;13.77;nan
12777;BME280;6452;41.572;23.732;2023-09-19T02:09:14;95673.63;;;14.08;nan
12777;BME280;6452;41.572;23.732;2023-09-19T02:11:41;95672.53;;;13.99;nan
12777;BME280;6452;41.572;23.732;2023-09-19T02:14:08;95641.69;;;13.76;nan
12777;BME280;6452;41.572;23.732;2023-09-19T02:16:35;95670.16;;;14.02;nan
12777;BME280;6452;41.572;23.732;2023-09-19T02:19:01;95664.50;;;13.99;nan
12777;BME280;6452;41.572;23.732;2023-09-19T02:21:31;95676.06;;;14.04;nan
12777;BME280;6452;41.572;23.732;2023-09-19T02:23:58;95675.78;;;14.11;nan
12777;BME280;6452;41.572;23.732;2023-09-19T02:26:25;95657.81;;;14.01;nan
12777;BME280;6452;41.572;23.732;2023-09-19T02:28:53;95634.44;;;13.72;nan
12777;BME280;6452;41.572;23.732;2023-09-19T02:31:23;95637.16;;;13.82;nan
12777;BME280;6452;41.572;23.732;2023-09-19T02:33:50;95671.75;;;14.03;nan
12777;BME280;6452;41.572;23.732;2023-09-19T02:36:17;95676.03;;;13.94;nan
12777;BME280;6452;41.572;23.732;2023-09-19T02:38:48;95600.66;;;13.50;nan
12777;BME280;6452;41.572;23.732;2023-09-19T02:41:14;95651.63;;;13.81;nan
12777;BME280;6452;41.572;23.732;2023-09-19T02:43:45;95669.03;;;13.93;nan
12777;BME280;6452;41.572;23.732;2023-09-19T02:46:11;95662.88;;;13.98;nan
12777;BME280;6452;41.572;23.732;2023-09-19T02:48:38;95628.28;;;13.71;nan
12777;BME280;6452;41.572;23.732;2023-09-19T02:51:05;95659.41;;;13.92;nan
12777;BME280;6452;41.572;23.732;2023-09-19T02:53:32;95618.59;;;13.55;nan
12777;BME280;6452;41.572;23.732;2023-09-19T02:55:59;95661.25;;;13.82;nan
12777;BME280;6452;41.572;23.732;2023-09-19T02:58:26;95624.50;;;13.62;nan
12777;BME280;6452;41.572;23.732;2023-09-19T03:00:56;95617.78;;;13.49;nan
12777;BME280;6452;41.572;23.732;2023-09-19T03:03:23;95657.19;;;13.54;nan
12777;BME280;6452;41.572;23.732;2023-09-19T03:05:50;95672.13;;;13.50;nan
12777;BME280;6452;41.572;23.732;2023-09-19T03:08:19;95658.50;;;13.46;nan
12777;BME280;6452;41.572;23.732;2023-09-19T03:10:48;95649.34;;;13.37;nan
12777;BME280;6452;41.572;23.732;2023-09-19T03:13:15;95641.25;;;13.27;nan
12777;BME280;6452;41.572;23.732;2023-09-19T03:15:42;95648.78;;;13.30;nan
12777;BME280;6452;41.572;23.732;2023-09-19T03:18:12;95606.34;;;13.02;nan
12777;BME280;6452;41.572;23.732;2023-09-19T03:20:39;95648.22;;;13.23;nan
12777;BME280;6452;41.572;23.732;2023-09-19T03:23:06;95653.88;;;13.32;nan
12777;BME280;6452;41.572;23.732;2023-09-19T03:25:34;95584.31;;;12.74;nan
12777;BME280;6452;41.572;23.732;2023-09-19T03:28:01;95615.84;;;12.72;nan
12777;BME280;6452;41.572;23.732;2023-09-19T03:30:32;95664.00;;;12.82;nan
12777;BME280;6452;41.572;23.732;2023-09-19T03:32:59;95633.31;;;12.48;nan
12777;BME280;6452;41.572;23.732;2023-09-19T03:35:26;95666.63;;;12.67;nan
12777;BME280;6452;41.572;23.732;2023-09-19T03:37:53;95668.06;;;12.48;nan
12777;BME280;6452;41.572;23.732;2023-09-19T03:40:19;95646.94;;;12.46;nan
12777;BME280;6452;41.572;23.732;2023-09-19T03:42:47;95673.84;;;12.72;nan
12777;BME280;6452;41.572;23.732;2023-09-19T03:45:13;95621.81;;;12.47;nan
12777;BME280;6452;41.572;23.732;2023-09-19T03:47:41;95677.88;;;12.74;nan
12777;BME280;6452;41.572;23.732;2023-09-19T03:50:08;95671.97;;;12.67;nan
12777;BME280;6452;41.572;23.732;2023-09-19T03:52:36;95666.09;;;12.70;nan
12777;BME280;6452;41.572;23.732;2023-09-19T03:55:03;95633.56;;;12.46;nan
12777;BME280;6452;41.572;23.732;2023-09-19T03:57:33;95635.19;;;12.47;nan
12777;BME280;6452;41.572;23.732;2023-09-19T04:00:02;95665.00;;;12.66;nan
12777;BME280;6452;41.572;23.732;2023-09-19T04:02:31;95635.22;;;12.52;nan
12777;BME280;6452;41.572;23.732;2023-09-19T04:04:59;95679.47;;;12.75;nan
12777;BME280;6452;41.572;23.732;2023-09-19T04:07:25;95663.94;;;12.67;nan
12777;BME280;6452;41.572;23.732;2023-09-19T04:09:55;95604.38;;;12.40;nan
12777;BME280;6452;41.572;23.732;2023-09-19T04:12:21;95613.91;;;12.26;nan
12777;BME280;6452;41.572;23.732;2023-09-19T04:14:48;95700.69;;;12.82;nan
12777;BME280;6452;41.572;23.732;2023-09-19T04:17:16;95657.16;;;12.55;nan
12777;BME280;6452;41.572;23.732;2023-09-19T04:19:42;95655.25;;;12.50;nan
12777;BME280;6452;41.572;23.732;2023-09-19T04:22:11;95692.81;;;12.70;nan
12777;BME280;6452;41.572;23.732;2023-09-19T04:24:38;95653.06;;;12.42;nan
12777;BME280;6452;41.572;23.732;2023-09-19T04:27:05;95621.44;;;12.29;nan
12777;BME280;6452;41.572;23.732;2023-09-19T04:29:33;95685.34;;;12.72;nan
12777;BME280;6452;41.572;23.732;2023-09-19T04:31:59;95689.91;;;12.77;nan
12777;BME280;6452;41.572;23.732;2023-09-19T04:34:26;95696.28;;;12.66;nan
12777;BME280;6452;41.572;23.732;2023-09-19T04:36:56;95712.88;;;13.10;nan
12777;BME280;6452;41.572;23.732;2023-09-19T04:39:24;95723.16;;;13.23;nan
12777;BME280;6452;41.572;23.732;2023-09-19T04:41:52;95718.13;;;13.32;nan
12777;BME280;6452;41.572;23.732;2023-09-19T04:44:20;95673.28;;;13.12;nan
12777;BME280;6452;41.572;23.732;2023-09-19T04:46:47;95711.41;;;13.34;nan
12777;BME280;6452;41.572;23.732;2023-09-19T04:49:13;95672.31;;;13.28;nan
12777;BME280;6452;41.572;23.732;2023-09-19T04:51:40;95701.09;;;13.63;nan
12777;BME280;6452;41.572;23.732;2023-09-19T04:54:06;95688.88;;;13.87;nan
12777;BME280;6452;41.572;23.732;2023-09-19T04:56:33;95722.94;;;14.02;nan
12777;BME280;6452;41.572;23.732;2023-09-19T04:59:00;95714.41;;;14.25;nan
12777;BME280;6452;41.572;23.732;2023-09-19T05:01:26;95703.69;;;14.30;nan
12777;BME280;6452;41.572;23.732;2023-09-19T05:03:52;95710.66;;;14.41;nan
12777;BME280;6452;41.572;23.732;2023-09-19T05:06:19;95705.34;;;14.47;nan
12777;BME280;6452;41.572;23.732;2023-09-19T05:08:50;95710.97;;;14.65;nan
12777;BME280;6452;41.572;23.732;2023-09-19T05:11:18;95710.16;;;14.80;nan
12777;BME280;6452;41.572;23.732;2023-09-19T05:13:45;95708.53;;;14.84;nan
12777;BME280;6452;41.572;23.732;2023-09-19T05:16:12;95709.03;;;15.01;nan
12777;BME280;6452;41.572;23.732;2023-09-19T05:18:38;95684.91;;;14.96;nan
12777;BME280;6452;41.572;23.732;2023-09-19T05:21:05;95721.06;;;15.34;nan
12777;BME280;6452;41.572;23.732;2023-09-19T05:23:32;95698.16;;;15.57;nan
12777;BME280;6452;41.572;23.732;2023-09-19T05:26:02;95684.03;;;15.95;nan
12777;BME280;6452;41.572;23.732;2023-09-19T05:28:30;95676.13;;;16.09;nan
12777;BME280;6452;41.572;23.732;2023-09-19T05:31:00;95715.94;;;16.12;nan
12777;BME280;6452;41.572;23.732;2023-09-19T05:33:28;95646.63;;;15.45;nan
12777;BME280;6452;41.572;23.732;2023-09-19T05:35:55;95711.25;;;15.84;nan
12777;BME280;6452;41.572;23.732;2023-09-19T05:38:22;95711.97;;;15.94;nan
12777;BME280;6452;41.572;23.732;2023-09-19T05:40:50;95682.19;;;15.91;nan
12777;BME280;6452;41.572;23.732;2023-09-19T05:43:16;95715.91;;;16.51;nan
12777;BME280;6452;41.572;23.732;2023-09-19T05:45:43;95721.16;;;16.76;nan
12777;BME280;6452;41.572;23.732;2023-09-19T05:48:14;95691.97;;;16.89;nan
12777;BME280;6452;41.572;23.732;2023-09-19T05:50:42;95723.84;;;16.71;nan
12777;BME280;6452;41.572;23.732;2023-09-19T05:53:08;95717.38;;;16.77;nan
12777;BME280;6452;41.572;23.732;2023-09-19T05:55:38;95721.25;;;16.95;nan
12777;BME280;6452;41.572;23.732;2023-09-19T05:58:05;95721.69;;;17.31;nan
12777;BME280;6452;41.572;23.732;2023-09-19T06:00:31;95712.59;;;17.51;nan
12777;BME280;6452;41.572;23.732;2023-09-19T06:02:59;95709.25;;;17.64;nan
12777;BME280;6452;41.572;23.732;2023-09-19T06:05:29;95670.72;;;17.64;nan
12777;BME280;6452;41.572;23.732;2023-09-19T06:07:58;95708.38;;;17.69;nan
12777;BME280;6452;41.572;23.732;2023-09-19T06:10:44;95686.22;;;17.24;nan
12777;BME280;6452;41.572;23.732;2023-09-19T06:13:12;95710.06;;;17.65;nan
12777;BME280;6452;41.572;23.732;2023-09-19T06:15:39;95674.47;;;17.86;nan
12777;BME280;6452;41.572;23.732;2023-09-19T06:18:10;95703.13;;;18.39;nan
12777;BME280;6452;41.572;23.732;2023-09-19T06:20:38;95704.94;;;18.06;nan
12777;BME280;6452;41.572;23.732;2023-09-19T06:23:10;95670.16;;;18.42;nan
12777;BME280;6452;41.572;23.732;2023-09-19T06:25:36;95661.63;;;18.86;nan
12777;BME280;6452;41.572;23.732;2023-09-19T06:28:03;95676.31;;;19.39;nan
12777;BME280;6452;41.572;23.732;2023-09-19T06:30:31;95702.25;;;19.81;nan
12777;BME280;6452;41.572;23.732;2023-09-19T06:32:59;95694.72;;;20.55;nan
12777;BME280;6452;41.572;23.732;2023-09-19T06:35:26;95689.78;;;20.35;nan
12777;BME280;6452;41.572;23.732;2023-09-19T06:37:55;95702.59;;;19.80;nan
12777;BME280;6452;41.572;23.732;2023-09-19T06:40:23;95701.44;;;20.08;nan
12777;BME280;6452;41.572;23.732;2023-09-19T06:42:51;95652.06;;;19.89;nan
12777;BME280;6452;41.572;23.732;2023-09-19T06:45:18;95696.19;;;20.84;nan
12777;BME280;6452;41.572;23.732;2023-09-19T06:47:45;95693.84;;;20.69;nan
12777;BME280;6452;41.572;23.732;2023-09-19T06:50:11;95623.47;;;21.30;nan
12777;BME280;6452;41.572;23.732;2023-09-19T06:52:40;95682.81;;;21.40;nan
12777;BME280;6452;41.572;23.732;2023-09-19T06:55:07;95647.19;;;20.94;nan
12777;BME280;6452;41.572;23.732;2023-09-19T06:57:36;95686.78;;;21.74;nan
12777;BME280;6452;41.572;23.732;2023-09-19T07:00:08;95639.38;;;21.71;nan
12777;BME280;6452;41.572;23.732;2023-09-19T07:02:42;95667.44;;;22.58;nan
12777;BME280;6452;41.572;23.732;2023-09-19T07:05:08;95638.06;;;22.17;nan
12777;BME280;6452;41.572;23.732;2023-09-19T07:07:35;95630.25;;;22.24;nan
12777;BME280;6452;41.572;23.732;2023-09-19T07:10:03;95642.53;;;22.04;nan
12777;BME280;6452;41.572;23.732;2023-09-19T07:12:37;95651.91;;;21.98;nan
12777;BME280;6452;41.572;23.732;2023-09-19T07:15:03;95674.78;;;21.58;nan
12777;BME280;6452;41.572;23.732;2023-09-19T07:17:31;95677.25;;;21.85;nan
12777;BME280;6452;41.572;23.732;2023-09-19T07:20:02;95653.53;;;22.42;nan
12777;BME280;6452;41.572;23.732;2023-09-19T07:22:34;95668.44;;;23.34;nan
12777;BME280;6452;41.572;23.732;2023-09-19T07:25:00;95631.13;;;23.52;nan
12777;BME280;6452;41.572;23.732;2023-09-19T07:27:27;95640.44;;;24.01;nan
12777;BME280;6452;41.572;23.732;2023-09-19T07:29:57;95664.06;;;23.59;nan
12777;BME280;6452;41.572;23.732;2023-09-19T07:32:24;95663.28;;;24.09;nan
12777;BME280;6452;41.572;23.732;2023-09-19T07:34:50;95662.91;;;24.19;nan
12777;BME280;6452;41.572;23.732;2023-09-19T07:37:17;95623.50;;;23.96;nan
12777;BME280;6452;41.572;23.732;2023-09-19T07:39:44;95662.53;;;24.50;nan
12777;BME280;6452;41.572;23.732;2023-09-19T07:42:10;95617.88;;;24.42;nan
12777;BME280;6452;41.572;23.732;2023-09-19T07:44:44;95648.78;;;25.00;nan
12777;BME280;6452;41.572;23.732;2023-09-19T07:47:14;95609.59;;;24.72;nan
12777;BME280;6452;41.572;23.732;2023-09-19T07:49:40;95643.88;;;25.26;nan
12777;BME280;6452;41.572;23.732;2023-09-19T07:52:09;95602.94;;;25.39;nan
12777;BME280;6452;41.572;23.732;2023-09-19T07:54:36;95642.75;;;26.13;nan
12777;BME280;6452;41.572;23.732;2023-09-19T07:57:02;95593.16;;;25.86;nan
12777;BME280;6452;41.572;23.732;2023-09-19T07:59:30;95599.38;;;25.02;nan
12777;BME280;6452;41.572;23.732;2023-09-19T08:01:57;95593.59;;;25.15;nan
12777;BME280;6452;41.572;23.732;2023-09-19T08:04:24;95588.00;;;26.21;nan
12777;BME280;6452;41.572;23.732;2023-09-19T08:06:52;95595.09;;;25.98;nan
12777;BME280;6452;41.572;23.732;2023-09-19T08:09:18;95621.13;;;26.20;nan
12777;BME280;6452;41.572;23.732;2023-09-19T08:11:47;95613.94;;;26.15;nan
12777;BME280;6452;41.572;23.732;2023-09-19T08:14:13;95580.22;;;25.47;nan
12777;BME280;6452;41.572;23.732;2023-09-19T08:16:44;95616.16;;;26.77;nan
12777;BME280;6452;41.572;23.732;2023-09-19T08:19:10;95611.41;;;27.49;nan
12777;BME280;6452;41.572;23.732;2023-09-19T08:21:37;95615.75;;;27.50;nan
12777;BME280;6452;41.572;23.732;2023-09-19T08:24:04;95619.09;;;26.85;nan
12777;BME280;6452;41.572;23.732;2023-09-19T08:26:31;95604.63;;;27.28;nan
12777;BME280;6452;41.572;23.732;2023-09-19T08:29:00;95604.69;;;26.88;nan
12777;BME280;6452;41.572;23.732;2023-09-19T08:31:31;95566.84;;;26.46;nan
12777;BME280;6452;41.572;23.732;2023-09-19T08:33:59;95530.31;;;26.66;nan
12777;BME280;6452;41.572;23.732;2023-09-19T08:36:26;95565.34;;;27.51;nan
12777;BME280;6452;41.572;23.732;2023-09-19T08:38:53;95559.41;;;26.31;nan
12777;BME280;6452;41.572;23.732;2023-09-19T08:41:19;95602.50;;;27.52;nan
12777;BME280;6452;41.572;23.732;2023-09-19T08:43:45;95594.63;;;27.67;nan
12777;BME280;6452;41.572;23.732;2023-09-19T08:46:16;95591.56;;;27.52;nan
12777;BME280;6452;41.572;23.732;2023-09-19T08:49:07;95591.34;;;28.27;nan
12777;BME280;6452;41.572;23.732;2023-09-19T08:51:42;95560.31;;;27.88;nan
12777;BME280;6452;41.572;23.732;2023-09-19T08:54:24;95584.84;;;28.55;nan
12777;BME280;6452;41.572;23.732;2023-09-19T08:56:54;95563.94;;;28.47;nan
12777;BME280;6452;41.572;23.732;2023-09-19T08:59:21;95569.06;;;28.48;nan
12777;BME280;6452;41.572;23.732;2023-09-19T09:01:50;95572.25;;;29.83;nan
12777;BME280;6452;41.572;23.732;2023-09-19T09:04:19;95560.31;;;29.72;nan
12777;BME280;6452;41.572;23.732;2023-09-19T09:06:46;95558.19;;;28.52;nan
12777;BME280;6452;41.572;23.732;2023-09-19T09:09:17;95489.06;;;29.07;nan
12777;BME280;6452;41.572;23.732;2023-09-19T09:11:43;95553.06;;;30.77;nan
12777;BME280;6452;41.572;23.732;2023-09-19T09:14:11;95545.53;;;30.40;nan
12777;BME280;6452;41.572;23.732;2023-09-19T09:16:38;95511.81;;;30.43;nan
12777;BME280;6452;41.572;23.732;2023-09-19T09:19:05;95536.75;;;29.98;nan
12777;BME280;6452;41.572;23.732;2023-09-19T09:21:32;95496.91;;;29.84;nan
12777;BME280;6452;41.572;23.732;2023-09-19T09:24:28;95544.97;;;31.79;nan
12777;BME280;6452;41.572;23.732;2023-09-19T09:26:56;95542.28;;;31.38;nan
12777;BME280;6452;41.572;23.732;2023-09-19T09:29:43;95533.88;;;31.21;nan
12777;BME280;6452;41.572;23.732;2023-09-19T09:32:23;95539.88;;;31.81;nan
12777;BME280;6452;41.572;23.732;2023-09-19T09:34:57;95489.22;;;32.10;nan
12777;BME280;6452;41.572;23.732;2023-09-19T09:37:24;95529.72;;;31.99;nan
12777;BME280;6452;41.572;23.732;2023-09-19T09:39:55;95523.91;;;31.53;nan
12777;BME280;6452;41.572;23.732;2023-09-19T09:42:38;95525.06;;;31.04;nan
12777;BME280;6452;41.572;23.732;2023-09-19T09:47:45;95515.34;;;30.77;nan
12777;BME280;6452;41.572;23.732;2023-09-19T09:50:37;95513.31;;;31.08;nan
12777;BME280;6452;41.572;23.732;2023-09-19T09:53:23;95471.41;;;30.47;nan
12777;BME280;6452;41.572;23.732;2023-09-19T09:56:07;95509.25;;;29.94;nan
12777;BME280;6452;41.572;23.732;2023-09-19T09:58:52;95497.97;;;30.03;nan
12777;BME280;6452;41.572;23.732;2023-09-19T10:01:21;95488.03;;;30.24;nan
12777;BME280;6452;41.572;23.732;2023-09-19T10:03:57;95511.78;;;29.83;nan
12777;BME280;6452;41.572;23.732;2023-09-19T10:06:26;95506.78;;;30.19;nan
12777;BME280;6452;41.572;23.732;2023-09-19T10:09:07;95506.44;;;29.15;nan
12777;BME280;6452;41.572;23.732;2023-09-19T10:12:05;95506.59;;;29.48;nan
12777;BME280;6452;41.572;23.732;2023-09-19T10:14:35;95507.72;;;30.63;nan
12777;BME280;6452;41.572;23.732;2023-09-19T10:17:10;95507.00;;;30.67;nan
12777;BME280;6452;41.572;23.732;2023-09-19T10:19:46;95494.88;;;31.12;nan
12777;BME280;6452;41.572;23.732;2023-09-19T10:22:17;95463.16;;;30.47;nan
12777;BME280;6452;41.572;23.732;2023-09-19T10:24:48;95491.53;;;31.39;nan
12777;BME280;6452;41.572;23.732;2023-09-19T10:27:20;95461.44;;;31.68;nan
12777;BME280;6452;41.572;23.732;2023-09-19T10:29:49;95489.97;;;31.97;nan
12777;BME280;6452;41.572;23.732;2023-09-19T10:32:18;95449.44;;;31.39;nan
12777;BME280;6452;41.572;23.732;2023-09-19T10:34:47;95469.59;;;32.15;nan
12777;BME280;6452;41.572;23.732;2023-09-19T10:37:15;95445.63;;;32.34;nan
12777;BME280;6452;41.572;23.732;2023-09-19T10:39:45;95472.94;;;32.81;nan
12777;BME280;6452;41.572;23.732;2023-09-19T10:42:18;95464.69;;;33.03;nan
12777;BME280;6452;41.572;23.732;2023-09-19T10:44:46;95433.09;;;32.79;nan
12777;BME280;6452;41.572;23.732;2023-09-19T10:47:20;95462.25;;;32.66;nan
12777;BME280;6452;41.572;23.732;2023-09-19T10:49:49;95420.19;;;31.82;nan
12777;BME280;6452;41.572;23.732;2023-09-19T10:52:19;95407.03;;;32.55;nan
12777;BME280;6452;41.572;23.732;2023-09-19T10:54:51;95448.34;;;32.20;nan
12777;BME280;6452;41.572;23.732;2023-09-19T10:57:22;95380.22;;;32.41;nan
12777;BME280;6452;41.572;23.732;2023-09-19T11:00:08;95376.09;;;31.82;nan
12777;BME280;6452;41.572;23.732;2023-09-19T11:05:41;95439.19;;;30.88;nan
12777;BME280;6452;41.572;23.732;2023-09-19T11:08:08;95376.41;;;30.16;nan
12777;BME280;6452;41.572;23.732;2023-09-19T11:10:51;95435.53;;;31.21;nan
12777;BME280;6452;41.572;23.732;2023-09-19T11:13:37;95430.44;;;31.27;nan
12777;BME280;6452;41.572;23.732;2023-09-19T11:16:06;95431.94;;;31.72;nan
12777;BME280;6452;41.572;23.732;2023-09-19T11:29:32;95379.66;;;34.68;nan
12777;BME280;6452;41.572;23.732;2023-09-19T11:31:59;95416.69;;;34.26;nan
12777;BME280;6452;41.572;23.732;2023-09-19T11:40:08;95345.09;;;34.32;nan
12777;BME280;6452;41.572;23.732;2023-09-19T11:42:44;95320.59;;;33.47;nan
12777;BME280;6452;41.572;23.732;2023-09-19T11:48:06;95345.88;;;33.38;nan
12777;BME280;6452;41.572;23.732;2023-09-19T11:50:33;95368.84;;;33.21;nan
12777;BME280;6452;41.572;23.732;2023-09-19T11:53:02;95372.38;;;32.97;nan
12777;BME280;6452;41.572;23.732;2023-09-19T11:55:31;95293.41;;;31.82;nan
12777;BME280;6452;41.572;23.732;2023-09-19T11:57:59;95332.16;;;32.74;nan
12777;BME280;6452;41.572;23.732;2023-09-19T12:00:25;95357.34;;;32.34;nan
12777;BME280;6452;41.572;23.732;2023-09-19T12:02:55;95353.19;;;31.71;nan
12777;BME280;6452;41.572;23.732;2023-09-19T12:05:31;95353.78;;;32.26;nan
12777;BME280;6452;41.572;23.732;2023-09-19T12:07:59;95360.75;;;31.92;nan
12777;BME280;6452;41.572;23.732;2023-09-19T12:10:26;95355.63;;;31.83;nan
12777;BME280;6452;41.572;23.732;2023-09-19T12:12:52;95320.56;;;31.76;nan
12777;BME280;6452;41.572;23.732;2023-09-19T12:15:28;95309.69;;;32.33;nan
12777;BME280;6452;41.572;23.732;2023-09-19T12:18:00;95354.09;;;33.59;nan
12777;BME280;6452;41.572;23.732;2023-09-19T12:20:43;95340.06;;;32.83;nan
12777;BME280;6452;41.572;23.732;2023-09-19T12:23:29;95303.75;;;32.81;nan
12777;BME280;6452;41.572;23.732;2023-09-19T12:25:56;95295.66;;;33.64;nan
12777;BME280;6452;41.572;23.732;2023-09-19T12:28:28;95339.56;;;35.32;nan
12777;BME280;6452;41.572;23.732;2023-09-19T12:30:56;95332.53;;;35.91;nan
12777;BME280;6452;41.572;23.732;2023-09-19T12:33:23;95321.19;;;37.76;nan
12777;BME280;6452;41.572;23.732;2023-09-19T12:35:52;95298.19;;;38.11;nan
12777;BME280;6452;41.572;23.732;2023-09-19T12:38:26;95293.72;;;38.50;nan
12777;BME280;6452;41.572;23.732;2023-09-19T12:41:01;95294.47;;;38.34;nan
12777;BME280;6452;41.572;23.732;2023-09-19T12:43:31;95318.34;;;37.60;nan
12777;BME280;6452;41.572;23.732;2023-09-19T12:46:01;95309.25;;;37.95;nan
12777;BME280;6452;41.572;23.732;2023-09-19T12:48:28;95279.78;;;36.49;nan
12777;BME280;6452;41.572;23.732;2023-09-19T12:51:06;95283.81;;;36.94;nan
12777;BME280;6452;41.572;23.732;2023-09-19T12:53:34;95253.88;;;37.65;nan
12777;BME280;6452;41.572;23.732;2023-09-19T12:56:06;95309.56;;;38.85;nan
12777;BME280;6452;41.572;23.732;2023-09-19T12:58:54;95301.19;;;39.18;nan
12777;BME280;6452;41.572;23.732;2023-09-19T13:01:27;95277.88;;;38.47;nan
12777;BME280;6452;41.572;23.732;2023-09-19T13:04:13;95303.81;;;38.44;nan
12777;BME280;6452;41.572;23.732;2023-09-19T13:06:41;95305.25;;;38.68;nan
12777;BME280;6452;41.572;23.732;2023-09-19T13:09:11;95271.88;;;38.64;nan
12777;BME280;6452;41.572;23.732;2023-09-19T13:11:37;95265.00;;;38.37;nan
12777;BME280;6452;41.572;23.732;2023-09-19T13:14:25;95295.56;;;39.34;nan
12777;BME280;6452;41.572;23.732;2023-09-19T13:17:07;95284.81;;;39.49;nan
12777;BME280;6452;41.572;23.732;2023-09-19T13:19:53;95250.78;;;38.47;nan
12777;BME280;6452;41.572;23.732;2023-09-19T13:22:44;95294.09;;;39.46;nan
12777;BME280;6452;41.572;23.732;2023-09-19T13:25:21;95243.88;;;39.46;nan
12777;BME280;6452;41.572;23.732;2023-09-19T13:27:52;95278.16;;;40.13;nan
12777;BME280;6452;41.572;23.732;2023-09-19T13:30:20;95246.13;;;39.22;nan
12777;BME280;6452;41.572;23.732;2023-09-19T13:32:47;95276.66;;;38.64;nan
12777;BME280;6452;41.572;23.732;2023-09-19T13:35:18;95246.00;;;38.48;nan
12777;BME280;6452;41.572;23.732;2023-09-19T13:37:46;95271.91;;;39.26;nan
12777;BME280;6452;41.572;23.732;2023-09-19T13:40:15;95198.00;;;38.60;nan
12777;BME280;6452;41.572;23.732;2023-09-19T13:42:42;95257.28;;;40.05;nan
12777;BME280;6452;41.572;23.732;2023-09-19T13:45:08;95256.97;;;40.28;nan
12777;BME280;6452;41.572;23.732;2023-09-19T13:47:38;95251.50;;;40.25;nan
12777;BME280;6452;41.572;23.732;2023-09-19T13:50:05;95262.38;;;38.62;nan
12777;BME280;6452;41.572;23.732;2023-09-19T13:52:34;95216.03;;;39.00;nan
12777;BME280;6452;41.572;23.732;2023-09-19T13:55:00;95219.59;;;39.71;nan
12777;BME280;6452;41.572;23.732;2023-09-19T13:57:27;95219.41;;;38.47;nan
12777;BME280;6452;41.572;23.732;2023-09-19T13:59:53;95243.47;;;38.86;nan
12777;BME280;6452;41.572;23.732;2023-09-19T14:02:23;95250.66;;;39.16;nan
12777;BME280;6452;41.572;23.732;2023-09-19T14:04:51;95244.47;;;38.47;nan
12777;BME280;6452;41.572;23.732;2023-09-19T14:07:18;95244.03;;;36.78;nan
12777;BME280;6452;41.572;23.732;2023-09-19T14:09:45;95223.16;;;35.32;nan
12777;BME280;6452;41.572;23.732;2023-09-19T14:12:12;95238.34;;;34.38;nan
12777;BME280;6452;41.572;23.732;2023-09-19T14:14:38;95244.91;;;34.03;nan
12777;BME280;6452;41.572;23.732;2023-09-19T14:17:05;95213.34;;;33.27;nan
12777;BME280;6452;41.572;23.732;2023-09-19T14:19:33;95245.31;;;33.14;nan